Forside
METAR-TAF:

METAR-TAF

Lufthavne :

Rochester International Airport

Rochester, Minnesota, USA

Breddekreds: 43-54-15N, længdekreds: 092-29-30W, højde: 401 m

Aktuelle vejr

Denne rapport blev lavet for 43 minutter siden, kl. 15:54 UTC
Vind 5 kt fra vestnordvest
Temperatur 23°C
Fugtighed 65%
Tryk 1021 hPa
Sigt: 16.1 km
skyfri

METAR: KRST 031554Z 29005KT 10SM CLR 23/16 A3014 RMK AO2 SLP204 T02330156

Tid: 11:37 (16:37 UTC)

Vejrudsigter

Denne rapport blev lavet for 5 timer og 17 minutter siden, kl. 11:20 UTC
Foreløbig gælder fra 03 på 12 UTC til 04 på 12 UTC
Vind 6 kt fra vestsydvest
Sigt: 10 km
skyfri
Fra 03 på 1700 UTC
Vind 8 kt fra vest
Sigt: 9.7 km
Spredte skyer i en højde af 4500 ft
tåge/dis
Fra 04 på 0000 UTC
Vind 5 kt fra sydsydvest
Sigt: 10 km
Nogle få skyer i en højde af 25000 ft

TAF: KRST 031120Z 0312/0412 24006KT P6SM SKC FM031700 26008KT 6SM HZ SCT045 FM040000 21005KT P6SM FEW250

Vejrobservationer og prognoser fra mere end 4000 lufthavne (METAR og TAF).

De gule og røde prikker repræsenterer de meteorologiske stationer.

Flyt musen over at se navnet på stationen.

Så klik over at se vejr observationer og prognoser.

At skifte det kort: Klik på de grønne knapper med et sort kors for at zoome ind; på den grønne knap med en bindestreg for at zoome ud; eller på de grønne pile for tilstødende kort.


METAR-TAF: